createdAt,value
2019-04-23T00:00:07.593Z,1009.00
2019-04-23T00:01:22.089Z,1009.03
2019-04-23T00:02:04.149Z,1008.96
2019-04-23T00:03:21.775Z,1008.99
2019-04-23T00:04:05.732Z,1008.96
2019-04-23T00:05:02.406Z,1009.00
2019-04-23T00:06:16.932Z,1008.95
2019-04-23T00:07:17.110Z,1008.92
2019-04-23T00:08:12.776Z,1008.93
2019-04-23T00:09:15.710Z,1008.92
2019-04-23T00:10:12.389Z,1008.95
2019-04-23T00:11:08.687Z,1008.92
2019-04-23T00:12:09.959Z,1008.92
2019-04-23T00:13:04.188Z,1008.94
2019-04-23T00:14:05.590Z,1008.85
2019-04-23T00:15:07.509Z,1008.88
2019-04-23T00:16:14.013Z,1008.92
2019-04-23T00:17:11.617Z,1008.86
2019-04-23T00:18:10.140Z,1008.90
2019-04-23T00:19:02.411Z,1008.89
2019-04-23T00:20:10.748Z,1008.87
2019-04-23T00:21:08.823Z,1008.87
2019-04-23T00:22:05.519Z,1008.89
2019-04-23T00:23:11.509Z,1008.87
2019-04-23T00:24:10.050Z,1008.90
2019-04-23T00:25:25.706Z,1008.85
2019-04-23T00:26:17.770Z,1008.79
2019-04-23T00:27:19.605Z,1008.76
2019-04-23T00:29:32.638Z,1008.83
2019-04-23T00:30:00.976Z,1008.79
2019-04-23T00:31:13.698Z,1008.80
2019-04-23T00:32:08.159Z,1008.82
2019-04-23T00:33:12.028Z,1008.88
2019-04-23T00:34:30.797Z,1008.83
2019-04-23T00:35:05.932Z,1008.82
2019-04-23T00:36:19.659Z,1008.86
2019-04-23T00:37:13.165Z,1008.76
2019-04-23T00:38:12.065Z,1008.81
2019-04-23T00:39:01.368Z,1008.73
2019-04-23T00:40:06.196Z,1008.81
2019-04-23T00:41:05.733Z,1008.80
2019-04-23T00:42:08.299Z,1008.79
2019-04-23T00:43:11.317Z,1008.74
2019-04-23T00:45:00.443Z,1008.77
2019-04-23T00:45:59.806Z,1008.77
2019-04-23T00:47:06.457Z,1008.81
2019-04-23T00:48:02.998Z,1008.78
2019-04-23T00:49:12.027Z,1008.72
2019-04-23T00:50:12.117Z,1008.72
2019-04-23T00:50:58.271Z,1008.68
2019-04-23T00:52:07.539Z,1008.74
2019-04-23T00:53:05.898Z,1008.66
2019-04-23T00:54:09.159Z,1008.68
2019-04-23T00:55:10.988Z,1008.71
2019-04-23T00:56:25.249Z,1008.74
2019-04-23T00:57:09.041Z,1008.70
2019-04-23T00:59:08.332Z,1008.68
2019-04-23T01:00:11.956Z,1008.71
2019-04-23T01:01:04.132Z,1008.71
2019-04-23T01:02:10.469Z,1008.70
2019-04-23T01:03:05.781Z,1008.67
2019-04-23T01:04:12.320Z,1008.73
2019-04-23T01:05:11.757Z,1008.69
2019-04-23T01:06:06.494Z,1008.75
2019-04-23T01:07:04.359Z,1008.72
2019-04-23T01:08:10.059Z,1008.73
2019-04-23T01:09:02.148Z,1008.71
2019-04-23T01:10:10.262Z,1008.71
2019-04-23T01:12:07.565Z,1008.73
2019-04-23T01:13:08.645Z,1008.75
2019-04-23T01:15:11.975Z,1008.72
2019-04-23T01:16:05.655Z,1008.75
2019-04-23T01:17:08.598Z,1008.70
2019-04-23T01:18:15.460Z,1008.70
2019-04-23T01:18:58.294Z,1008.69
2019-04-23T01:20:04.840Z,1008.72
2019-04-23T01:20:53.722Z,1008.70
2019-04-23T01:21:43.665Z,1008.75
2019-04-23T01:22:44.187Z,1008.71
2019-04-23T01:23:51.868Z,1008.72
2019-04-23T01:24:45.877Z,1008.65
2019-04-23T01:25:52.211Z,1008.68
2019-04-23T01:27:23.833Z,1008.66
2019-04-23T01:28:07.659Z,1008.68
2019-04-23T01:29:06.774Z,1008.63
2019-04-23T01:30:09.574Z,1008.57
2019-04-23T01:32:08.606Z,1008.63
2019-04-23T01:33:11.774Z,1008.63
2019-04-23T01:34:13.404Z,1008.63
2019-04-23T01:35:21.145Z,1008.59
2019-04-23T01:36:21.916Z,1008.56
2019-04-23T01:37:15.167Z,1008.60
2019-04-23T01:38:04.507Z,1008.53
2019-04-23T01:39:14.387Z,1008.55
2019-04-23T01:40:11.872Z,1008.54
2019-04-23T01:41:09.712Z,1008.57
2019-04-23T01:42:16.548Z,1008.55
2019-04-23T01:43:10.794Z,1008.55
2019-04-23T01:44:11.511Z,1008.50
2019-04-23T01:45:16.223Z,1008.48
2019-04-23T01:46:08.078Z,1008.42
2019-04-23T01:47:07.769Z,1008.43
2019-04-23T01:48:08.898Z,1008.50
2019-04-23T01:49:30.694Z,1008.47
2019-04-23T01:50:14.386Z,1008.39
2019-04-23T01:51:01.767Z,1008.45
2019-04-23T01:52:08.362Z,1008.37
2019-04-23T01:53:14.366Z,1008.38
2019-04-23T01:54:10.866Z,1008.37
2019-04-23T01:55:18.344Z,1008.40
2019-04-23T01:56:04.889Z,1008.41
2019-04-23T01:57:09.610Z,1008.34
2019-04-23T01:59:12.410Z,1008.33
2019-04-23T02:00:16.085Z,1008.31
2019-04-23T02:01:29.531Z,1008.33
2019-04-23T02:02:17.013Z,1008.32
2019-04-23T02:03:11.017Z,1008.29
2019-04-23T02:05:15.703Z,1008.36
2019-04-23T02:07:11.427Z,1008.34
2019-04-23T02:08:08.317Z,1008.30
2019-04-23T02:09:25.527Z,1008.29
2019-04-23T02:10:16.793Z,1008.30
2019-04-23T02:12:16.008Z,1008.25
2019-04-23T02:13:12.632Z,1008.27
2019-04-23T02:14:09.368Z,1008.22
2019-04-23T02:15:13.814Z,1008.27
2019-04-23T02:16:25.892Z,1008.25
2019-04-23T02:17:13.971Z,1008.29
2019-04-23T02:18:11.472Z,1008.18
2019-04-23T02:19:09.748Z,1008.25
2019-04-23T02:20:17.782Z,1008.24
2019-04-23T02:21:07.782Z,1008.24
2019-04-23T02:22:15.198Z,1008.23
2019-04-23T02:23:19.878Z,1008.26
2019-04-23T02:24:09.152Z,1008.26
2019-04-23T02:25:16.160Z,1008.22
2019-04-23T02:26:15.261Z,1008.28
2019-04-23T02:27:13.317Z,1008.22
2019-04-23T02:28:10.723Z,1008.23
2019-04-23T02:30:37.550Z,1008.24
2019-04-23T02:31:45.100Z,1008.26
2019-04-23T02:32:10.953Z,1008.25
2019-04-23T02:33:29.301Z,1008.20
2019-04-23T02:34:23.563Z,1008.24
2019-04-23T02:35:42.697Z,1008.21
2019-04-23T02:36:07.399Z,1008.18
2019-04-23T02:37:22.118Z,1008.19
2019-04-23T02:38:23.043Z,1008.17
2019-04-23T02:39:11.800Z,1008.26
2019-04-23T02:40:26.701Z,1008.15
2019-04-23T02:42:28.642Z,1008.19
2019-04-23T02:43:16.730Z,1008.20
2019-04-23T02:45:17.005Z,1008.17
2019-04-23T02:48:19.048Z,1008.13
2019-04-23T02:51:22.507Z,1008.12
2019-04-23T02:52:16.063Z,1008.15
2019-04-23T02:55:38.490Z,1008.12
2019-04-23T02:56:21.534Z,1008.10
2019-04-23T02:58:21.792Z,1008.14
2019-04-23T02:59:19.718Z,1008.11
2019-04-23T03:03:25.252Z,1008.00
2019-04-23T03:04:17.536Z,1008.06
2019-04-23T03:06:14.572Z,1008.07
2019-04-23T03:08:20.261Z,1008.04
2019-04-23T03:09:27.881Z,1008.07
2019-04-23T03:10:15.353Z,1008.02
2019-04-23T03:15:28.408Z,1007.98
2019-04-23T03:17:09.737Z,1008.05
2019-04-23T03:18:39.245Z,1007.96
2019-04-23T03:21:31.211Z,1007.91
2019-04-23T03:22:09.267Z,1007.90
2019-04-23T03:23:27.591Z,1007.93
2019-04-23T03:24:28.375Z,1007.89
2019-04-23T03:25:18.857Z,1007.94
2019-04-23T03:26:27.276Z,1007.82
2019-04-23T03:28:23.213Z,1007.89
2019-04-23T03:29:21.950Z,1007.89
2019-04-23T03:30:28.777Z,1007.86
2019-04-23T03:32:45.478Z,1007.90
2019-04-23T03:33:55.462Z,1007.83
2019-04-23T03:36:18.302Z,1007.81
2019-04-23T03:37:23.361Z,1007.85
2019-04-23T03:38:23.688Z,1007.81
2019-04-23T03:39:04.587Z,1007.86
2019-04-23T03:40:21.282Z,1007.84
2019-04-23T03:43:19.826Z,1007.81
2019-04-23T03:44:15.913Z,1007.82
2019-04-23T03:46:34.521Z,1007.77
2019-04-23T03:47:18.525Z,1007.76
2019-04-23T03:48:28.597Z,1007.80
2019-04-23T03:49:06.287Z,1007.78
2019-04-23T03:51:16.210Z,1007.79
2019-04-23T03:52:23.255Z,1007.75
2019-04-23T03:53:22.564Z,1007.71
2019-04-23T03:54:26.292Z,1007.81
2019-04-23T03:55:18.568Z,1007.63
2019-04-23T03:57:18.276Z,1007.74
2019-04-23T03:58:18.711Z,1007.77
2019-04-23T03:59:19.976Z,1007.73
2019-04-23T04:00:27.231Z,1007.72
2019-04-23T04:03:42.240Z,1007.67
2019-04-23T04:05:27.317Z,1007.64
2019-04-23T04:07:05.415Z,1007.66
2019-04-23T04:07:22.585Z,1007.63
2019-04-23T04:10:18.149Z,1007.52
2019-04-23T04:11:14.553Z,1007.59
2019-04-23T04:13:15.481Z,1007.64
2019-04-23T04:15:31.721Z,1007.62
2019-04-23T04:16:11.905Z,1007.61
2019-04-23T04:17:17.930Z,1007.56
2019-04-23T04:18:30.897Z,1007.60
2019-04-23T04:19:29.360Z,1007.58
2019-04-23T04:20:37.036Z,1007.66
2019-04-23T04:21:18.495Z,1007.60
2019-04-23T04:24:17.424Z,1007.63
2019-04-23T04:25:26.145Z,1007.60
2019-04-23T04:26:16.303Z,1007.61
2019-04-23T04:31:13.709Z,1007.64
2019-04-23T04:32:06.032Z,1007.59
2019-04-23T04:33:41.452Z,1007.61
2019-04-23T04:38:25.399Z,1007.54
2019-04-23T04:39:09.346Z,1007.63
2019-04-23T04:40:18.099Z,1007.53
2019-04-23T04:41:24.002Z,1007.60
2019-04-23T04:42:28.335Z,1007.59
2019-04-23T04:43:22.478Z,1007.62
2019-04-23T04:44:26.403Z,1007.53
2019-04-23T04:45:25.554Z,1007.60
2019-04-23T04:46:21.385Z,1007.56
2019-04-23T04:48:09.506Z,1007.54
2019-04-23T04:49:15.239Z,1007.51
2019-04-23T04:50:02.389Z,1007.54
2019-04-23T04:53:26.843Z,1007.52
2019-04-23T04:55:18.135Z,1007.55
2019-04-23T04:57:20.761Z,1007.64
2019-04-23T04:58:13.088Z,1007.62
2019-04-23T05:02:30.521Z,1007.47
2019-04-23T05:04:19.848Z,1007.44
2019-04-23T05:05:51.571Z,1007.49
2019-04-23T05:07:25.938Z,1007.42
2019-04-23T05:08:17.377Z,1007.43
2019-04-23T05:09:25.048Z,1007.41
2019-04-23T05:10:21.849Z,1007.40
2019-04-23T05:11:19.618Z,1007.39
2019-04-23T05:13:31.916Z,1007.34
2019-04-23T05:15:07.368Z,1007.44
2019-04-23T05:17:15.722Z,1007.45
2019-04-23T05:18:22.015Z,1007.43
2019-04-23T05:19:22.140Z,1007.38
2019-04-23T05:20:16.955Z,1007.46
2019-04-23T05:21:12.518Z,1007.45
2019-04-23T05:22:22.654Z,1007.40
2019-04-23T05:24:16.644Z,1007.40
2019-04-23T05:25:09.446Z,1007.42
2019-04-23T05:26:09.657Z,1007.43
2019-04-23T05:27:13.947Z,1007.37
2019-04-23T05:29:14.491Z,1007.41
2019-04-23T05:30:29.344Z,1007.33
2019-04-23T05:31:12.082Z,1007.33
2019-04-23T05:32:10.141Z,1007.36
2019-04-23T05:33:13.343Z,1007.29
2019-04-23T05:35:16.913Z,1007.34
2019-04-23T05:37:07.053Z,1007.30
2019-04-23T05:39:17.256Z,1007.28
2019-04-23T05:40:20.125Z,1007.27
2019-04-23T05:42:04.500Z,1007.18
2019-04-23T05:43:08.087Z,1007.30
2019-04-23T05:44:14.207Z,1007.23
2019-04-23T05:45:09.805Z,1007.20
2019-04-23T05:46:16.057Z,1007.28
2019-04-23T05:48:16.221Z,1007.24
2019-04-23T05:50:10.059Z,1007.24
2019-04-23T05:51:11.727Z,1007.29
2019-04-23T05:52:09.625Z,1007.30
2019-04-23T05:54:06.537Z,1007.18
2019-04-23T05:55:10.653Z,1007.26
2019-04-23T05:56:06.459Z,1007.23
2019-04-23T05:57:23.701Z,1007.29
2019-04-23T05:58:11.902Z,1007.16
2019-04-23T05:59:14.730Z,1007.29
2019-04-23T06:00:12.081Z,1007.25
2019-04-23T06:01:24.664Z,1007.18
2019-04-23T06:02:07.446Z,1007.22
2019-04-23T06:03:12.008Z,1007.21
2019-04-23T06:05:12.600Z,1007.26
2019-04-23T06:06:10.766Z,1007.30
2019-04-23T06:08:12.165Z,1007.31
2019-04-23T06:09:12.730Z,1007.29
2019-04-23T06:10:04.825Z,1007.25
2019-04-23T06:11:12.008Z,1007.34
2019-04-23T06:13:04.905Z,1007.27
2019-04-23T06:14:17.388Z,1007.27
2019-04-23T06:15:05.612Z,1007.17
2019-04-23T06:16:04.994Z,1007.31
2019-04-23T06:17:11.162Z,1007.15
2019-04-23T06:18:12.101Z,1007.25
2019-04-23T06:20:11.395Z,1007.19
2019-04-23T06:21:10.171Z,1007.26
2019-04-23T06:23:18.185Z,1007.24
2019-04-23T06:25:13.246Z,1007.22
2019-04-23T06:26:19.781Z,1007.23
2019-04-23T06:27:06.888Z,1007.13
2019-04-23T06:28:09.747Z,1007.21
2019-04-23T06:29:16.232Z,1007.16
2019-04-23T06:30:01.222Z,1007.25
2019-04-23T06:31:07.416Z,1007.23
2019-04-23T06:32:06.551Z,1007.19
2019-04-23T06:33:05.792Z,1007.16
2019-04-23T06:34:14.278Z,1007.20
2019-04-23T06:35:09.047Z,1007.18
2019-04-23T06:36:16.981Z,1007.22
2019-04-23T06:39:00.258Z,1007.17
2019-04-23T06:40:11.925Z,1007.19
2019-04-23T06:41:08.637Z,1007.15
2019-04-23T06:42:08.045Z,1007.15
2019-04-23T06:43:05.230Z,1007.08
2019-04-23T06:44:15.918Z,1007.13
2019-04-23T06:45:06.325Z,1007.04
2019-04-23T06:46:08.365Z,1007.10
2019-04-23T06:48:10.606Z,1007.10
2019-04-23T06:49:10.889Z,1007.13
2019-04-23T06:50:25.677Z,1007.09
2019-04-23T06:51:13.720Z,1007.09
2019-04-23T06:53:00.565Z,1007.09
2019-04-23T06:54:06.868Z,1007.03
2019-04-23T06:55:12.266Z,1007.00
2019-04-23T06:56:11.762Z,1007.01
2019-04-23T06:57:14.621Z,1007.00
2019-04-23T06:58:13.605Z,1007.05
2019-04-23T06:59:06.319Z,1007.05
2019-04-23T07:00:25.810Z,1006.98
2019-04-23T07:03:11.191Z,1006.96
2019-04-23T07:05:10.379Z,1006.90
2019-04-23T07:07:33.369Z,1006.98
2019-04-23T07:08:12.321Z,1006.87
2019-04-23T07:10:07.755Z,1006.90
2019-04-23T07:11:18.314Z,1006.88
2019-04-23T07:12:07.173Z,1006.81
2019-04-23T07:13:04.829Z,1006.82
2019-04-23T07:13:58.502Z,1006.84
2019-04-23T07:16:04.670Z,1006.81
2019-04-23T07:17:02.374Z,1006.74
2019-04-23T07:18:07.466Z,1006.75
2019-04-23T07:19:09.609Z,1006.74
2019-04-23T07:20:06.816Z,1006.77
2019-04-23T07:21:06.772Z,1006.75
2019-04-23T07:22:14.876Z,1006.59
2019-04-23T07:24:26.357Z,1006.73
2019-04-23T07:25:07.786Z,1006.65
2019-04-23T07:26:15.560Z,1006.70
2019-04-23T07:27:06.600Z,1006.68
2019-04-23T07:28:15.031Z,1006.65
2019-04-23T07:29:17.814Z,1006.72
2019-04-23T07:30:11.647Z,1006.70
2019-04-23T07:31:13.838Z,1006.69
2019-04-23T07:32:05.666Z,1006.65
2019-04-23T07:33:04.324Z,1006.69
2019-04-23T07:36:15.524Z,1006.59
2019-04-23T07:37:05.109Z,1006.59
2019-04-23T07:38:16.372Z,1006.56
2019-04-23T07:39:11.003Z,1006.58
2019-04-23T07:41:12.043Z,1006.62
2019-04-23T07:42:09.281Z,1006.52
2019-04-23T07:43:08.356Z,1006.50
2019-04-23T07:44:12.520Z,1006.53
2019-04-23T07:45:12.439Z,1006.49
2019-04-23T07:46:12.274Z,1006.48
2019-04-23T07:47:15.668Z,1006.49
2019-04-23T07:48:10.796Z,1006.51
2019-04-23T07:49:06.612Z,1006.43
2019-04-23T07:50:15.835Z,1006.37
2019-04-23T07:50:57.964Z,1006.40
2019-04-23T07:52:24.392Z,1006.42
2019-04-23T07:54:10.973Z,1006.33
2019-04-23T07:55:06.363Z,1006.41
2019-04-23T07:56:11.608Z,1006.35
2019-04-23T07:57:13.479Z,1006.43
2019-04-23T07:58:14.426Z,1006.35
2019-04-23T07:59:12.139Z,1006.34
2019-04-23T08:00:27.637Z,1006.28
2019-04-23T08:01:08.362Z,1006.32
2019-04-23T08:02:15.901Z,1006.27
2019-04-23T08:03:11.676Z,1006.13
2019-04-23T08:04:07.321Z,1006.18
2019-04-23T08:05:22.643Z,1006.17
2019-04-23T08:06:04.335Z,1006.19
2019-04-23T08:07:13.442Z,1006.19
2019-04-23T08:08:07.389Z,1006.11
2019-04-23T08:09:09.159Z,1006.18
2019-04-23T08:10:21.221Z,1006.11
2019-04-23T08:11:23.601Z,1006.23
2019-04-23T08:12:13.831Z,1006.08
2019-04-23T08:13:08.491Z,1006.16
2019-04-23T08:14:02.714Z,1006.21
2019-04-23T08:15:09.366Z,1006.22
2019-04-23T08:16:06.828Z,1006.18
2019-04-23T08:17:05.616Z,1006.17
2019-04-23T08:18:06.874Z,1006.11
2019-04-23T08:19:26.701Z,1006.10
2019-04-23T08:20:07.662Z,1006.09
2019-04-23T08:21:06.483Z,1006.11
2019-04-23T08:22:17.557Z,1006.08
2019-04-23T08:23:14.023Z,1006.05
2019-04-23T08:25:10.993Z,1006.08
2019-04-23T08:26:13.589Z,1006.01
2019-04-23T08:27:04.213Z,1005.93
2019-04-23T08:28:07.573Z,1006.06
2019-04-23T08:29:12.242Z,1006.03
2019-04-23T08:30:00.273Z,1006.06
2019-04-23T08:31:09.938Z,1006.03
2019-04-23T08:32:06.898Z,1005.89
2019-04-23T08:33:03.941Z,1005.97
2019-04-23T08:34:20.434Z,1006.03
2019-04-23T08:37:09.275Z,1005.91
2019-04-23T08:38:27.465Z,1005.89
2019-04-23T08:39:02.090Z,1005.98
2019-04-23T08:40:01.531Z,1005.97
2019-04-23T08:43:20.911Z,1005.82
2019-04-23T08:44:08.891Z,1005.83
2019-04-23T08:45:18.547Z,1005.79
2019-04-23T08:46:07.235Z,1005.78
2019-04-23T08:48:15.021Z,1005.73
2019-04-23T08:49:13.983Z,1005.75
2019-04-23T08:50:09.665Z,1005.72
2019-04-23T08:51:26.312Z,1005.65
2019-04-23T08:52:11.863Z,1005.72
2019-04-23T08:53:18.307Z,1005.66
2019-04-23T08:54:06.937Z,1005.70
2019-04-23T08:55:31.025Z,1005.67
2019-04-23T08:56:03.619Z,1005.60
2019-04-23T08:57:09.103Z,1005.68
2019-04-23T08:58:09.697Z,1005.64
2019-04-23T08:59:07.177Z,1005.66
2019-04-23T09:00:02.462Z,1005.59
2019-04-23T09:01:09.547Z,1005.58
2019-04-23T09:03:04.483Z,1005.65
2019-04-23T09:04:04.719Z,1005.61
2019-04-23T09:05:08.782Z,1005.54
2019-04-23T09:06:06.493Z,1005.59
2019-04-23T09:07:11.413Z,1005.57
2019-04-23T09:08:14.509Z,1005.61
2019-04-23T09:09:04.388Z,1005.50
2019-04-23T09:11:20.000Z,1005.48
2019-04-23T09:12:23.616Z,1005.49
2019-04-23T09:13:36.422Z,1005.45
2019-04-23T09:13:59.558Z,1005.41
2019-04-23T09:15:13.022Z,1005.43
2019-04-23T09:16:03.378Z,1005.45
2019-04-23T09:17:04.849Z,1005.42
2019-04-23T09:18:09.734Z,1005.38
2019-04-23T09:19:11.195Z,1005.40
2019-04-23T09:20:21.923Z,1005.43
2019-04-23T09:21:03.470Z,1005.37
2019-04-23T09:22:18.156Z,1005.36
2019-04-23T09:23:02.793Z,1005.32
2019-04-23T09:24:03.461Z,1005.35
2019-04-23T09:25:14.752Z,1005.22
2019-04-23T09:26:05.472Z,1005.25
2019-04-23T09:27:06.907Z,1005.25
2019-04-23T09:28:08.121Z,1005.29
2019-04-23T09:29:09.644Z,1005.26
2019-04-23T09:30:09.328Z,1005.19
2019-04-23T09:31:14.498Z,1005.22
2019-04-23T09:32:22.412Z,1005.20
2019-04-23T09:33:06.544Z,1005.27
2019-04-23T09:34:07.863Z,1005.15
2019-04-23T09:36:08.326Z,1005.18
2019-04-23T09:37:11.367Z,1005.11
2019-04-23T09:38:10.152Z,1005.19
2019-04-23T09:39:08.392Z,1005.10
2019-04-23T09:40:15.048Z,1005.16
2019-04-23T09:42:11.337Z,1005.05
2019-04-23T09:43:08.097Z,1004.99
2019-04-23T09:44:14.382Z,1005.12
2019-04-23T09:45:03.712Z,1005.06
2019-04-23T09:46:12.465Z,1005.00
2019-04-23T09:47:06.556Z,1005.05
2019-04-23T09:49:14.816Z,1005.02
2019-04-23T09:50:08.205Z,1004.97
2019-04-23T09:51:02.547Z,1004.97
2019-04-23T09:52:08.024Z,1004.96
2019-04-23T09:53:24.078Z,1004.95
2019-04-23T09:54:09.841Z,1004.95
2019-04-23T09:55:20.934Z,1004.91
2019-04-23T09:56:01.115Z,1004.90
2019-04-23T09:56:57.119Z,1004.97
2019-04-23T09:59:01.217Z,1004.77
2019-04-23T10:00:10.628Z,1004.77
2019-04-23T10:00:59.004Z,1004.86
2019-04-23T10:01:57.709Z,1004.85
2019-04-23T10:02:53.715Z,1004.82
2019-04-23T10:03:50.508Z,1004.78
2019-04-23T10:04:57.421Z,1004.75
2019-04-23T10:05:48.789Z,1004.73
2019-04-23T10:06:40.820Z,1004.77
2019-04-23T10:07:47.610Z,1004.72
2019-04-23T10:08:42.917Z,1004.63
2019-04-23T10:09:38.326Z,1004.60
2019-04-23T10:10:38.322Z,1004.63
2019-04-23T10:11:37.407Z,1004.65
2019-04-23T10:12:37.699Z,1004.57
2019-04-23T10:13:38.463Z,1004.67
2019-04-23T10:14:36.880Z,1004.46
2019-04-23T10:15:40.513Z,1004.44
2019-04-23T10:16:38.869Z,1004.43
2019-04-23T10:17:38.051Z,1004.46
2019-04-23T10:18:37.377Z,1004.35
2019-04-23T10:19:36.986Z,1004.39
2019-04-23T10:20:38.391Z,1004.35
2019-04-23T10:21:37.464Z,1004.36
2019-04-23T10:22:38.034Z,1004.39
2019-04-23T10:23:37.176Z,1004.32
2019-04-23T10:24:37.041Z,1004.36
2019-04-23T10:25:38.228Z,1004.30
2019-04-23T10:26:37.939Z,1004.22
2019-04-23T10:27:36.935Z,1004.23
2019-04-23T10:28:38.158Z,1004.16
2019-04-23T10:29:38.228Z,1004.18
2019-04-23T10:30:36.716Z,1004.10
2019-04-23T10:31:37.537Z,1004.08
2019-04-23T10:32:37.755Z,1004.18
2019-04-23T10:33:37.958Z,1004.18
2019-04-23T10:34:47.559Z,1004.04
2019-04-23T10:35:46.098Z,1004.19
2019-04-23T10:36:38.661Z,1004.09
2019-04-23T10:37:45.638Z,1004.01
2019-04-23T10:38:41.538Z,1004.07
2019-04-23T10:39:41.326Z,1004.01
2019-04-23T10:40:41.887Z,1004.01
2019-04-23T10:41:38.520Z,1004.08
2019-04-23T10:42:40.918Z,1004.06
2019-04-23T10:43:40.455Z,1004.07
2019-04-23T10:44:38.005Z,1004.08
2019-04-23T10:45:57.622Z,1004.14
2019-04-23T10:47:08.171Z,1004.06
2019-04-23T10:48:12.196Z,1003.96
2019-04-23T10:49:22.561Z,1004.00
2019-04-23T10:50:05.529Z,1004.06
2019-04-23T10:51:09.072Z,1004.02
2019-04-23T10:53:19.191Z,1003.95
2019-04-23T10:54:17.829Z,1003.93
2019-04-23T10:55:25.230Z,1003.86
2019-04-23T10:57:17.283Z,1003.92
2019-04-23T10:58:10.323Z,1003.96
2019-04-23T10:59:03.309Z,1003.93
2019-04-23T11:00:04.410Z,1003.86
2019-04-23T11:01:04.416Z,1003.90
2019-04-23T11:02:25.405Z,1003.86
2019-04-23T11:03:26.824Z,1003.88
2019-04-23T11:05:08.258Z,1003.86
2019-04-23T11:06:21.488Z,1003.65
2019-04-23T11:08:08.656Z,1003.76
2019-04-23T11:09:23.550Z,1003.75
2019-04-23T11:11:10.947Z,1003.70
2019-04-23T11:12:14.592Z,1003.65
2019-04-23T11:13:02.483Z,1003.82
2019-04-23T11:14:11.082Z,1003.67
2019-04-23T11:16:41.887Z,1003.66
2019-04-23T11:17:04.442Z,1003.72
2019-04-23T11:18:34.092Z,1003.61
2019-04-23T11:19:10.775Z,1003.77
2019-04-23T11:20:17.657Z,1003.74
2019-04-23T11:22:24.116Z,1003.70
2019-04-23T11:24:12.844Z,1003.77
2019-04-23T11:25:12.601Z,1003.75
2019-04-23T11:26:07.063Z,1003.71
2019-04-23T11:27:07.854Z,1003.60
2019-04-23T11:28:17.987Z,1003.50
2019-04-23T11:29:12.829Z,1003.59
2019-04-23T11:30:21.143Z,1003.64
2019-04-23T11:31:09.085Z,1003.60
2019-04-23T11:32:19.374Z,1003.72
2019-04-23T11:33:09.880Z,1003.61
2019-04-23T11:34:08.059Z,1003.50
2019-04-23T11:37:03.382Z,1003.46
2019-04-23T11:39:08.455Z,1003.48
2019-04-23T11:40:08.679Z,1003.45
2019-04-23T11:41:12.833Z,1003.48
2019-04-23T11:42:19.391Z,1003.48
2019-04-23T11:43:07.660Z,1003.55
2019-04-23T11:44:17.251Z,1003.48
2019-04-23T11:45:13.858Z,1003.48
2019-04-23T11:46:25.701Z,1003.38
2019-04-23T11:47:14.293Z,1003.48
2019-04-23T11:50:28.116Z,1003.35
2019-04-23T11:51:43.711Z,1003.43
2019-04-23T11:52:13.634Z,1003.43
2019-04-23T11:53:00.313Z,1003.26
2019-04-23T11:55:22.773Z,1003.34
2019-04-23T11:56:12.102Z,1003.39
2019-04-23T11:57:34.615Z,1003.33
2019-04-23T11:58:20.737Z,1003.20
2019-04-23T11:59:07.472Z,1003.24
2019-04-23T12:00:09.813Z,1003.23
2019-04-23T12:01:33.810Z,1003.26
2019-04-23T12:01:56.419Z,1003.28
2019-04-23T12:02:59.268Z,1003.27
2019-04-23T12:04:13.734Z,1003.34
2019-04-23T12:05:17.218Z,1003.32
2019-04-23T12:07:10.984Z,1003.22
2019-04-23T12:08:07.330Z,1003.17
2019-04-23T12:09:11.283Z,1003.15
2019-04-23T12:11:35.544Z,1003.06
2019-04-23T12:12:08.106Z,1003.13
2019-04-23T12:13:13.912Z,1003.06
2019-04-23T12:14:16.010Z,1003.06
2019-04-23T12:15:15.551Z,1003.04
2019-04-23T12:16:10.473Z,1003.04
2019-04-23T12:18:28.409Z,1002.91
2019-04-23T12:19:33.385Z,1003.01
2019-04-23T12:21:04.129Z,1003.05
2019-04-23T12:22:15.564Z,1003.03
2019-04-23T12:23:12.328Z,1002.97
2019-04-23T12:26:11.670Z,1002.98
2019-04-23T12:27:08.388Z,1003.02
2019-04-23T12:28:12.121Z,1002.98
2019-04-23T12:29:13.818Z,1003.01
2019-04-23T12:30:13.199Z,1002.92
2019-04-23T12:31:10.109Z,1002.95
2019-04-23T12:32:16.113Z,1003.02
2019-04-23T12:33:06.532Z,1002.97
2019-04-23T12:34:06.971Z,1002.92
2019-04-23T12:36:07.314Z,1002.93
2019-04-23T12:37:04.125Z,1002.84
2019-04-23T12:38:07.356Z,1002.91
2019-04-23T12:39:04.373Z,1002.83
2019-04-23T12:41:10.508Z,1002.82
2019-04-23T12:42:32.349Z,1002.78
2019-04-23T12:44:22.388Z,1002.79
2019-04-23T12:45:14.711Z,1002.81
2019-04-23T12:45:56.885Z,1002.82
2019-04-23T12:47:21.045Z,1002.75
2019-04-23T12:48:09.422Z,1002.70
2019-04-23T12:51:09.324Z,1002.65
2019-04-23T12:52:04.945Z,1002.61
2019-04-23T12:53:27.628Z,1002.60
2019-04-23T12:54:06.905Z,1002.36
2019-04-23T12:55:22.068Z,1002.50
2019-04-23T12:56:02.459Z,1002.61
2019-04-23T12:58:22.053Z,1002.57
2019-04-23T12:58:59.577Z,1002.51
2019-04-23T13:00:05.264Z,1002.52
2019-04-23T13:01:00.510Z,1002.52
2019-04-23T13:02:16.079Z,1002.60
2019-04-23T13:03:06.576Z,1002.49
2019-04-23T13:03:59.739Z,1002.51
2019-04-23T13:05:10.213Z,1002.59
2019-04-23T13:05:59.167Z,1002.48
2019-04-23T13:07:11.312Z,1002.46
2019-04-23T13:08:11.815Z,1002.50
2019-04-23T13:09:19.346Z,1002.44
2019-04-23T13:11:23.600Z,1002.53
2019-04-23T13:12:10.571Z,1002.44
2019-04-23T13:13:09.224Z,1002.32
2019-04-23T13:14:07.005Z,1002.31
2019-04-23T13:15:05.830Z,1002.24
2019-04-23T13:16:05.632Z,1002.22
2019-04-23T13:17:16.026Z,1002.24
2019-04-23T13:18:15.333Z,1002.20
2019-04-23T13:19:14.668Z,1002.23
2019-04-23T13:21:15.302Z,1002.19
2019-04-23T13:22:08.159Z,1002.25
2019-04-23T13:24:04.247Z,1002.12
2019-04-23T13:25:06.152Z,1002.15
2019-04-23T13:25:57.437Z,1002.23
2019-04-23T13:27:11.880Z,1002.07
2019-04-23T13:28:06.739Z,1002.05
2019-04-23T13:29:03.165Z,1002.16
2019-04-23T13:30:08.313Z,1002.11
2019-04-23T13:31:08.441Z,1002.04
2019-04-23T13:32:04.034Z,1002.02
2019-04-23T13:33:17.574Z,1002.05
2019-04-23T13:33:58.451Z,1002.02
2019-04-23T13:36:11.317Z,1001.87
2019-04-23T13:37:11.200Z,1002.00
2019-04-23T13:38:10.406Z,1001.82
2019-04-23T13:39:02.113Z,1001.85
2019-04-23T13:40:00.489Z,1001.82
2019-04-23T13:41:11.606Z,1001.77
2019-04-23T13:42:07.902Z,1001.78
2019-04-23T13:43:57.249Z,1001.78
2019-04-23T13:45:05.334Z,1001.75
2019-04-23T13:47:18.143Z,1001.82
2019-04-23T13:48:06.723Z,1001.75
2019-04-23T13:49:03.090Z,1001.72
2019-04-23T13:50:10.005Z,1001.64
2019-04-23T13:51:19.811Z,1001.59
2019-04-23T13:52:37.767Z,1001.60
2019-04-23T13:54:01.701Z,1001.56
2019-04-23T13:56:01.960Z,1001.60
2019-04-23T13:57:45.676Z,1001.61
2019-04-23T13:59:03.606Z,1001.60
2019-04-23T14:00:28.666Z,1001.53
2019-04-23T14:01:13.801Z,1001.53
2019-04-23T14:02:07.811Z,1001.52
2019-04-23T14:03:04.453Z,1001.48
2019-04-23T14:04:14.255Z,1001.52
2019-04-23T14:05:04.485Z,1001.47
2019-04-23T14:06:09.034Z,1001.50
2019-04-23T14:07:05.248Z,1001.53
2019-04-23T14:08:14.184Z,1001.42
2019-04-23T14:09:11.698Z,1001.51
2019-04-23T14:10:14.810Z,1001.43
2019-04-23T14:11:05.404Z,1001.53
2019-04-23T14:12:04.405Z,1001.41
2019-04-23T14:13:30.240Z,1001.42
2019-04-23T14:14:05.837Z,1001.41
2019-04-23T14:15:04.880Z,1001.40
2019-04-23T14:16:04.759Z,1001.36
2019-04-23T14:17:11.494Z,1001.39
2019-04-23T14:18:29.198Z,1001.34
2019-04-23T14:19:02.447Z,1001.27
2019-04-23T14:20:10.359Z,1001.30
2019-04-23T14:21:08.076Z,1001.30
2019-04-23T14:22:20.952Z,1001.26
2019-04-23T14:25:05.782Z,1001.25
2019-04-23T14:26:25.570Z,1001.27
2019-04-23T14:27:08.829Z,1001.19
2019-04-23T14:28:16.067Z,1001.23
2019-04-23T14:29:01.228Z,1001.23
2019-04-23T14:31:04.739Z,1001.20
2019-04-23T14:32:10.272Z,1001.23
2019-04-23T14:33:15.875Z,1001.30
2019-04-23T14:34:04.856Z,1001.24
2019-04-23T14:35:11.440Z,1001.17
2019-04-23T14:36:20.784Z,1001.18